createdAt,value
2022-08-03T00:03:32.323Z,25.90
2022-08-03T00:06:36.803Z,25.90
2022-08-03T00:12:34.299Z,25.70
2022-08-03T00:15:15.136Z,25.60
2022-08-03T00:24:15.303Z,25.30
2022-08-03T00:29:59.339Z,25.20
2022-08-03T00:38:54.953Z,24.70
2022-08-03T00:41:00.537Z,24.60
2022-08-03T00:43:04.990Z,24.50
2022-08-03T00:45:16.323Z,24.50
2022-08-03T00:48:36.741Z,24.50
2022-08-03T00:57:14.569Z,24.50
2022-08-03T01:03:23.508Z,24.50
2022-08-03T01:05:41.739Z,24.40
2022-08-03T01:10:26.080Z,24.40
2022-08-03T01:33:23.562Z,24.10
2022-08-03T01:35:30.447Z,24.10
2022-08-03T01:46:00.575Z,23.90
2022-08-03T01:52:32.571Z,23.80
2022-08-03T02:00:52.067Z,23.90
2022-08-03T02:03:29.524Z,23.90
2022-08-03T02:05:48.098Z,23.90
2022-08-03T02:07:51.872Z,23.90
2022-08-03T02:10:36.083Z,23.90
2022-08-03T02:22:50.696Z,23.60
2022-08-03T02:25:52.233Z,23.60
2022-08-03T02:28:34.357Z,23.50
2022-08-03T02:49:42.617Z,23.40
2022-08-03T02:52:04.402Z,23.40
2022-08-03T03:20:03.817Z,23.00
2022-08-03T03:22:27.928Z,23.00
2022-08-03T03:28:53.594Z,23.00
2022-08-03T03:41:18.075Z,23.00
2022-08-03T03:43:57.201Z,23.00
2022-08-03T03:53:19.047Z,23.00
2022-08-03T03:56:18.112Z,22.90
2022-08-03T04:11:30.325Z,23.00
2022-08-03T04:14:06.703Z,23.00
2022-08-03T04:16:12.655Z,23.00
2022-08-03T04:28:35.093Z,23.30
2022-08-03T04:30:47.878Z,23.40
2022-08-03T04:32:52.010Z,23.50
2022-08-03T04:35:01.344Z,23.60
2022-08-03T04:37:07.223Z,23.70
2022-08-03T04:42:04.733Z,23.90
2022-08-03T04:44:39.448Z,24.10
2022-08-03T04:47:01.627Z,24.30
2022-08-03T04:49:18.658Z,24.40
2022-08-03T04:53:51.603Z,24.80
2022-08-03T04:56:45.683Z,25.00
2022-08-03T05:02:50.070Z,25.50
2022-08-03T05:05:50.156Z,25.80
2022-08-03T05:08:35.338Z,26.00
2022-08-03T05:11:07.944Z,26.30
2022-08-03T05:13:14.716Z,26.60
2022-08-03T05:15:48.092Z,26.80
2022-08-03T05:18:14.383Z,27.00
2022-08-03T05:20:43.546Z,27.30
2022-08-03T05:22:47.254Z,27.40
2022-08-03T05:24:57.660Z,27.60
2022-08-03T05:27:01.157Z,27.80
2022-08-03T05:29:13.574Z,28.00
2022-08-03T05:31:45.582Z,28.20
2022-08-03T05:36:13.259Z,28.30
2022-08-03T05:38:23.904Z,28.30
2022-08-03T05:41:22.442Z,28.40
2022-08-03T05:43:32.236Z,28.50
2022-08-03T05:45:38.862Z,28.80
2022-08-03T05:48:00.454Z,29.00
2022-08-03T05:50:19.533Z,29.10
2022-08-03T05:52:42.684Z,29.30
2022-08-03T05:55:04.429Z,29.30
2022-08-03T05:57:15.920Z,29.40
2022-08-03T06:00:02.865Z,29.60
2022-08-03T06:03:19.203Z,29.70
2022-08-03T06:05:28.532Z,29.90
2022-08-03T06:07:49.990Z,30.10
2022-08-03T06:10:35.775Z,30.20
2022-08-03T06:12:38.987Z,30.30
2022-08-03T06:14:55.654Z,30.40
2022-08-03T06:17:02.881Z,30.50
2022-08-03T06:20:07.225Z,30.60
2022-08-03T06:22:25.902Z,30.70
2022-08-03T06:24:56.483Z,30.70
2022-08-03T06:27:15.210Z,30.80
2022-08-03T06:29:23.049Z,30.80
2022-08-03T06:31:33.795Z,30.80
2022-08-03T06:34:31.297Z,30.90
2022-08-03T06:36:23.838Z,31.10
2022-08-03T06:38:27.301Z,31.30
2022-08-03T06:40:40.373Z,31.40
2022-08-03T06:42:46.735Z,31.60
2022-08-03T06:44:58.430Z,31.80
2022-08-03T06:49:23.574Z,32.20
2022-08-03T06:52:03.848Z,32.50
2022-08-03T06:54:13.670Z,32.60
2022-08-03T06:56:20.858Z,32.80
2022-08-03T06:58:42.916Z,32.90
2022-08-03T07:01:02.683Z,33.00
2022-08-03T07:05:26.878Z,33.50
2022-08-03T07:07:46.578Z,33.80
2022-08-03T07:10:02.449Z,34.00
2022-08-03T07:12:35.360Z,34.20
2022-08-03T07:14:43.430Z,34.30
2022-08-03T07:20:01.123Z,34.30
2022-08-03T07:22:04.891Z,34.30
2022-08-03T07:24:13.436Z,34.40
2022-08-03T07:27:07.923Z,34.50
2022-08-03T07:30:14.501Z,34.50
2022-08-03T07:32:25.085Z,34.50
2022-08-03T07:34:53.777Z,34.50
2022-08-03T07:37:17.719Z,34.60
2022-08-03T07:39:40.744Z,34.80
2022-08-03T07:44:53.374Z,35.20
2022-08-03T07:47:10.885Z,35.40
2022-08-03T07:49:32.388Z,35.50
2022-08-03T07:54:15.612Z,35.80
2022-08-03T07:56:57.184Z,36.00
2022-08-03T07:59:15.003Z,36.30
2022-08-03T08:04:31.806Z,36.50
2022-08-03T08:09:05.489Z,36.70
2022-08-03T08:11:08.977Z,36.80
2022-08-03T08:15:51.906Z,37.10
2022-08-03T08:18:08.611Z,37.20
2022-08-03T08:20:57.509Z,37.30
2022-08-03T08:23:41.764Z,37.40
2022-08-03T08:25:50.282Z,37.40
2022-08-03T08:28:31.598Z,37.40
2022-08-03T08:30:26.854Z,37.40
2022-08-03T08:32:37.756Z,37.60
2022-08-03T08:34:51.906Z,37.70
2022-08-03T08:37:32.137Z,37.80
2022-08-03T08:40:02.620Z,37.80
2022-08-03T08:42:18.038Z,37.70
2022-08-03T08:44:22.860Z,37.80
2022-08-03T08:46:36.144Z,37.80
2022-08-03T08:48:50.157Z,38.00
2022-08-03T08:51:07.535Z,38.20
2022-08-03T08:54:10.123Z,38.30
2022-08-03T08:56:44.035Z,38.60
2022-08-03T08:59:47.643Z,38.70
2022-08-03T09:04:50.632Z,38.80
2022-08-03T09:07:19.284Z,38.70
2022-08-03T09:10:10.469Z,38.80
2022-08-03T09:13:27.771Z,38.90
2022-08-03T09:14:39.401Z,39.00
2022-08-03T09:18:00.595Z,39.10
2022-08-03T09:20:11.085Z,39.10
2022-08-03T09:22:28.198Z,39.20
2022-08-03T09:24:41.052Z,39.10
2022-08-03T09:29:18.444Z,39.40
2022-08-03T09:31:46.540Z,39.30
2022-08-03T09:34:10.826Z,39.40
2022-08-03T09:36:36.873Z,39.30
2022-08-03T09:41:16.428Z,39.50
2022-08-03T09:43:29.372Z,39.60
2022-08-03T09:45:41.020Z,39.80
2022-08-03T09:50:58.560Z,40.00
2022-08-03T09:51:32.891Z,40.00
2022-08-03T09:53:42.651Z,40.00
2022-08-03T09:57:29.877Z,39.80
2022-08-03T10:00:04.786Z,39.80
2022-08-03T10:02:54.426Z,40.00
2022-08-03T10:08:19.340Z,40.30
2022-08-03T10:10:44.293Z,40.30
2022-08-03T10:12:49.360Z,40.20
2022-08-03T10:20:09.146Z,40.10
2022-08-03T10:22:16.511Z,40.10
2022-08-03T10:27:10.905Z,40.10
2022-08-03T10:29:19.705Z,40.30
2022-08-03T10:32:01.818Z,40.40
2022-08-03T10:37:11.975Z,41.00
2022-08-03T10:39:23.269Z,41.20
2022-08-03T10:41:57.031Z,41.10
2022-08-03T10:44:04.072Z,40.80
2022-08-03T10:46:10.317Z,40.70
2022-08-03T10:48:51.747Z,40.70
2022-08-03T10:51:02.802Z,40.80
2022-08-03T10:56:03.676Z,40.80
2022-08-03T10:58:12.315Z,40.90
2022-08-03T11:00:24.750Z,40.90
2022-08-03T11:08:34.994Z,41.10
2022-08-03T11:11:45.872Z,41.30
2022-08-03T11:14:09.840Z,41.40
2022-08-03T11:19:10.757Z,41.50
2022-08-03T11:24:07.003Z,41.70
2022-08-03T11:26:22.710Z,41.70
2022-08-03T11:28:37.541Z,41.60
2022-08-03T11:31:51.908Z,41.50
2022-08-03T11:36:53.176Z,41.30
2022-08-03T11:39:24.323Z,41.30
2022-08-03T11:42:02.827Z,41.50
2022-08-03T11:45:14.298Z,41.80
2022-08-03T11:46:52.779Z,42.00
2022-08-03T11:49:05.305Z,42.20
2022-08-03T11:54:09.349Z,42.30
2022-08-03T12:04:32.923Z,41.90
2022-08-03T12:06:55.035Z,42.00
2022-08-03T12:09:28.039Z,42.10
2022-08-03T12:11:59.867Z,42.10
2022-08-03T12:14:50.468Z,41.90
2022-08-03T12:17:12.128Z,41.90
2022-08-03T12:19:18.519Z,42.00
2022-08-03T12:21:30.125Z,42.00
2022-08-03T12:23:51.837Z,41.90
2022-08-03T12:26:03.516Z,41.90
2022-08-03T12:29:06.456Z,41.80
2022-08-03T12:31:14.151Z,41.90
2022-08-03T12:33:23.538Z,42.00
2022-08-03T12:35:29.693Z,42.20
2022-08-03T12:37:50.256Z,42.30
2022-08-03T12:40:10.605Z,42.30
2022-08-03T12:42:18.592Z,42.50
2022-08-03T12:44:33.431Z,42.30
2022-08-03T12:57:29.378Z,42.20
2022-08-03T13:03:39.458Z,42.10
2022-08-03T13:05:46.248Z,42.40
2022-08-03T13:08:24.889Z,42.70
2022-08-03T13:10:59.700Z,42.80
2022-08-03T13:13:03.742Z,42.90
2022-08-03T13:15:30.236Z,42.90
2022-08-03T13:20:22.878Z,43.00
2022-08-03T13:25:22.180Z,43.00
2022-08-03T13:28:03.348Z,43.20
2022-08-03T13:30:06.251Z,43.30
2022-08-03T13:32:37.571Z,43.50
2022-08-03T13:34:48.795Z,43.60
2022-08-03T13:37:09.671Z,43.70
2022-08-03T13:45:05.147Z,44.10
2022-08-03T13:47:18.838Z,44.10
2022-08-03T13:49:59.951Z,44.00
2022-08-03T13:52:18.988Z,43.80
2022-08-03T13:58:02.348Z,44.00
2022-08-03T14:02:15.979Z,43.80
2022-08-03T14:04:22.278Z,43.80
2022-08-03T14:12:12.686Z,44.60
2022-08-03T14:14:20.297Z,45.10
2022-08-03T14:19:01.917Z,45.20
2022-08-03T14:21:12.211Z,45.40
2022-08-03T14:23:56.995Z,45.40
2022-08-03T14:26:04.643Z,45.40
2022-08-03T14:28:08.161Z,45.50
2022-08-03T14:30:31.027Z,45.50
2022-08-03T14:35:33.045Z,45.60
2022-08-03T14:43:05.206Z,46.20
2022-08-03T14:45:20.017Z,46.10
2022-08-03T14:47:26.690Z,46.10
2022-08-03T14:51:56.962Z,46.00
2022-08-03T14:54:06.587Z,45.90
2022-08-03T14:56:27.961Z,45.80
2022-08-03T15:02:02.107Z,46.20
2022-08-03T15:03:50.385Z,46.50
2022-08-03T15:06:21.307Z,46.70
2022-08-03T15:08:35.702Z,46.50
2022-08-03T15:11:04.816Z,46.40
2022-08-03T15:13:07.452Z,46.60
2022-08-03T15:15:29.671Z,46.70
2022-08-03T15:18:23.671Z,46.80
2022-08-03T15:20:49.262Z,46.90
2022-08-03T15:26:34.009Z,46.80
2022-08-03T15:31:47.224Z,47.10
2022-08-03T15:34:15.471Z,47.30
2022-08-03T15:36:49.868Z,47.50
2022-08-03T15:39:09.065Z,47.40
2022-08-03T15:49:07.174Z,47.20
2022-08-03T15:54:35.516Z,47.50
2022-08-03T15:56:48.039Z,47.60
2022-08-03T15:59:13.387Z,47.50
2022-08-03T16:33:46.617Z,46.40
2022-08-03T16:52:17.957Z,47.80
2022-08-03T16:54:28.033Z,47.80
2022-08-03T17:44:13.773Z,46.80
2022-08-03T18:00:24.360Z,42.10
2022-08-03T18:34:16.919Z,37.90
2022-08-03T18:38:58.707Z,37.50
2022-08-03T18:58:51.397Z,36.70
2022-08-03T19:04:29.882Z,36.40
2022-08-03T19:06:38.022Z,36.10
2022-08-03T19:15:36.630Z,35.60
2022-08-03T19:18:20.543Z,35.30
2022-08-03T19:26:51.308Z,34.50
2022-08-03T19:31:59.790Z,34.10
2022-08-03T19:34:50.562Z,33.90
2022-08-03T19:44:36.980Z,33.50
2022-08-03T20:25:21.060Z,31.50
2022-08-03T20:28:06.843Z,31.40
2022-08-03T20:34:04.727Z,31.10
2022-08-03T20:36:08.907Z,31.00
2022-08-03T20:38:43.734Z,30.90
2022-08-03T20:46:00.600Z,30.80
2022-08-03T20:59:50.192Z,30.80
2022-08-03T21:47:47.453Z,30.00
2022-08-03T22:05:04.758Z,29.90
2022-08-03T22:22:55.331Z,29.90
2022-08-03T22:25:48.852Z,29.90
2022-08-03T22:28:36.644Z,29.90
2022-08-03T22:30:45.398Z,29.80
2022-08-03T22:58:35.735Z,29.60
2022-08-03T23:01:04.753Z,29.60
2022-08-03T23:10:50.551Z,29.30
2022-08-03T23:13:49.735Z,29.30
2022-08-03T23:16:50.534Z,29.20
2022-08-03T23:36:29.637Z,29.10
2022-08-03T23:45:05.808Z,29.00
2022-08-03T23:46:50.597Z,29.00
2022-08-03T23:51:00.240Z,28.90
